• Join FlightAware (Why Join?)
  • Login
  • US Flag 
01:48PM EST


 

Airport Tracker/Info


-or-


 

Live Flight TrackerFlight Track Log ✈ VH-CZD ✈ 19-Jun-2013 ✈ YPJT / JAD - YPJT / JAD

Flight Track Log - Related Links

Times and Time Zones

All times are in EDT time to prevent confusion due to time zone crossing. See the VH-CZD flight status page for this flight to view local times or setup timezone preferences in your user account.

Time Position Orientation Groundspeed Altitude Reporting Facility
EDT Latitude Longitude Course Direction KTS MPH feet Rate Location/Type
02:38AM -32.1023 115.8697 301° West 79 91 600  Level Aus ATC (RADAR)
02:39AM -32.0886 115.8428 301° West 108 124 1,700 660 Climbing Aus ATC (RADAR)
02:40AM -32.0720 115.8316 330° Northwest 110 127 1,800 480 Climbing Aus ATC (RADAR)
02:41AM -32.0713 115.8066 272° West 100 115 2,400 420 Climbing Aus ATC (RADAR)
02:42AM -32.0851 115.7732 244° Southwest 108 124 2,600 60 Climbing Aus ATC (RADAR)
02:42AM -32.0926 115.7567 242° Southwest 112 129 2,500 -60 Descending Aus ATC (RADAR)
02:44AM -32.1143 115.7080 242° Southwest 116 133 2,500 -60 Level Aus ATC (RADAR)
02:45AM -32.0811 115.6624 311° West 133 153 2,400 -60 Descending Aus ATC (RADAR)
02:46AM -32.0617 115.6297 305° West 130 150 2,400 -240 Level Aus ATC (RADAR)
02:47AM -32.0416 115.5973 306° West 132 152 2,000 -300 Descending Aus ATC (RADAR)
02:47AM -32.0287 115.5761 306° West 132 152 2,000  Level Aus ATC (RADAR)
02:48AM -32.0074 115.5403 305° West 129 148 2,000  Level Aus ATC (RADAR)
02:50AM -31.9781 115.5845 52° Northeast 118 136 2,100  Climbing Aus ATC (RADAR)
02:51AM -31.9972 115.5839 181° South 112 129 2,000 -60 Descending Aus ATC (RADAR)
02:52AM -31.9978 115.5463 269° West 115 132 2,000 60 Level Aus ATC (RADAR)
02:52AM -31.9870 115.5282 305° West 123 142 2,100  Climbing Aus ATC (RADAR)
02:55AM -31.9171 115.5194 354° North 121 139 2,100 -60 Level Aus ATC (RADAR)
02:57AM -31.9751 115.5386 164° South 100 115 2,000 -120 Descending Aus ATC (RADAR)
02:58AM -32.0154 115.5491 168° South 98 113 1,900  Descending Aus ATC (RADAR)
02:59AM -32.0100 115.5810 79° East 113 130 2,000 60 Climbing Aus ATC (RADAR)
03:00AM -31.9934 115.6114 57° Northeast 125 144 2,100  Climbing Aus ATC (RADAR)
03:01AM -31.9825 115.5831 294° West 113 130 2,100 -180 Level Aus ATC (RADAR)
03:02AM -31.9966 115.5682 222° Southwest 115 132 1,900 -120 Descending Aus ATC (RADAR)
03:03AM -32.0094 115.5378 244° Southwest 111 128 2,000 60 Climbing Aus ATC (RADAR)
03:03AM -32.0135 115.5258 248° West 114 131 2,000 -120 Level Aus ATC (RADAR)
03:06AM -32.0154 115.4345 269° West 139 160 1,600 -240 Descending Aus ATC (RADAR)
03:07AM -32.0084 115.4826 80° East 116 133 1,100 -360 Descending Aus ATC (RADAR)
03:08AM -32.0156 115.5271 101° East 106 122 900 -120 Descending Aus ATC (RADAR)
03:09AM -32.0234 115.5451 117° Southeast 110 127 900 -180 Level Aus ATC (RADAR)
03:10AM -32.0150 115.5687 67° East 100 115 700 -420 Descending Aus ATC (RADAR)
03:11AM -32.0062 115.5493 298° West 88 101 200 60 Descending Aus ATC (RADAR)
03:11AM -32.0052 115.5264 273° West 106 122 800 420 Climbing Aus ATC (RADAR)
03:12AM -32.0176 115.5155 217° Southwest 99 114 800  Level Aus ATC (RADAR)
03:13AM -32.0212 115.5458 98° East 108 124 800  Level Aus ATC (RADAR)
03:13AM -32.0227 115.5651 95° East 98 113 800 -300 Level Aus ATC (RADAR)
03:14AM -32.0052 115.5565 337° Northwest 97 112 400  Descending Aus ATC (RADAR)
03:16AM -32.0146 115.5169 254° West 102 117 800 180 Climbing Aus ATC (RADAR)
03:16AM -32.0212 115.5365 112° Southeast 104 120 800 -120 Level Aus ATC (RADAR)
03:17AM -32.0238 115.5658 96° East 98 113 700 -60 Descending Aus ATC (RADAR)
03:18AM -32.0066 115.5435 312° West 100 115 700 240 Level Aus ATC (RADAR)
03:19AM -32.0040 115.5206 278° West 104 120 1,100 180 Climbing Aus ATC (RADAR)
03:20AM -32.0144 115.5059 230° Southwest 96 110 1,000 -60 Descending Aus ATC (RADAR)
03:21AM -32.0218 115.5391 105° East 93 107 1,000  Level Aus ATC (RADAR)
03:21AM -32.0251 115.5627 99° East 102 117 1,000 -240 Level Aus ATC (RADAR)
03:22AM -32.0165 115.5785 57° Northeast 95 109 700 -180 Descending Aus ATC (RADAR)
03:23AM -32.0046 115.5558 302° West 96 110 700 120 Level Aus ATC (RADAR)
03:24AM -32.0025 115.5380 278° West 93 107 900 240 Climbing Aus ATC (RADAR)
03:25AM -32.0047 115.5150 264° West 82 94 1,100 60 Climbing Aus ATC (RADAR)
03:26AM -32.0213 115.5280 146° Southeast 91 105 1,100  Level Aus ATC (RADAR)
03:26AM -32.0213 115.5463 90° East 93 107 1,100 -180 Level Aus ATC (RADAR)
03:27AM -32.0154 115.5666 71° East 91 105 900 -420 Descending Aus ATC (RADAR)
03:28AM -32.0059 115.5455 298° West 88 101 400 -120 Descending Aus ATC (RADAR)
03:29AM -32.0039 115.5281 278° West 91 105 800 480 Climbing Aus ATC (RADAR)
03:30AM -32.0040 115.5016 270° West 85 98 1,200 420 Climbing Aus ATC (RADAR)
03:30AM -32.0037 115.4817 271° West 105 121 1,500 -120 Climbing Aus ATC (RADAR)
03:32AM -32.0212 115.5165 121° Southeast 118 136 1,000 -180 Descending Aus ATC (RADAR)
03:32AM -32.0241 115.5480 96° East 102 117 1,100 -120 Climbing Aus ATC (RADAR)
03:33AM -32.0243 115.5686 91° East 83 96 900 -480 Descending Aus ATC (RADAR)
03:34AM -32.0062 115.5637 347° North 94 108 500 -60 Descending Aus ATC (RADAR)
03:35AM -32.0017 115.5331 280° West 93 107 800 240 Climbing Aus ATC (RADAR)
03:36AM -32.0076 115.5066 255° West 88 101 1,100 120 Climbing Aus ATC (RADAR)
03:37AM -32.0239 115.5227 140° Southeast 107 123 1,100 -60 Level Aus ATC (RADAR)
03:38AM -32.0286 115.5512 101° East 95 109 1,000 -240 Descending Aus ATC (RADAR)
03:38AM -32.0167 115.5645 43° Northeast 98 113 700 -660 Descending Aus ATC (RADAR)
03:39AM -32.0055 115.5535 320° Northwest 104 120 200  Descending Aus ATC (RADAR)
03:40AM -32.0078 115.5242 265° West 86 99 700 360 Climbing Aus ATC (RADAR)
03:41AM -32.0151 115.4824 258° West 88 101 1,100 120 Climbing Aus ATC (RADAR)
03:42AM -32.0246 115.5075 114° Southeast 99 114 1,100 -60 Level Aus ATC (RADAR)
03:43AM -32.0268 115.5374 95° East 98 113 1,000 -120 Descending Aus ATC (RADAR)
03:44AM -32.0275 115.5607 92° East 102 117 1,000 60 Level Aus ATC (RADAR)
03:45AM -32.0330 115.5898 103° East 105 121 1,100 240 Climbing Aus ATC (RADAR)
03:46AM -32.0449 115.6323 108° East 104 120 1,600 180 Climbing Aus ATC (RADAR)
03:47AM -32.0508 115.6509 111° Southeast 117 135 1,500 -180 Descending Aus ATC (RADAR)
03:48AM -32.0625 115.6893 110° East 119 137 1,400  Descending Aus ATC (RADAR)
03:48AM -32.0713 115.7126 114° Southeast 101 116 1,500 60 Climbing Aus ATC (RADAR)
03:49AM -32.0780 115.7282 117° Southeast 103 119 1,500  Level Aus ATC (RADAR)
03:50AM -32.0894 115.7603 113° Southeast 103 119 1,500  Level Aus ATC (RADAR)
03:51AM -32.0906 115.7905 93° East 107 123 1,600 -60 Climbing Aus ATC (RADAR)
03:52AM -32.0886 115.8342 87° East 115 132 1,400 -300 Descending Aus ATC (RADAR)
03:53AM -32.0763 115.8634 64° Northeast 115 132 1,100 -360 Descending Aus ATC (RADAR)